Time;durP1;ratioP1;P1;durP2;ratioP2;P2;SDS_P1;SDS_P2;PMS_P1;PMS_P2;Temp;Humidity;BMP_temperature;BMP_pressure;BME280_temperature;BME280_humidity;BME280_pressure;Samples;Min_cycle;Max_cycle;Signal;HPM_P1;HPM_P2
2022/03/30 00:02:55;;;;;;;41.72;14.55;;;;;;;6.85;74.21;100656.94;5251584;23;20121;-94
2022/03/30 00:05:21;;;;;;;41.60;14.67;;;;;;;6.85;74.44;100651.63;4971020;28;20098;-94
2022/03/30 00:07:54;;;;;;;32.35;14.18;;;;;;;6.85;74.04;100664.94;4968498;29;20491;-93
2022/03/30 00:10:20;;;;;;;36.22;13.57;;;;;;;6.71;74.86;100648.44;4970649;29;20020;-93
2022/03/30 00:12:49;;;;;;;38.22;14.38;;;;;;;6.79;74.70;100657.91;4969982;28;20042;-94
2022/03/30 00:21:56;;;;;;;37.80;13.85;;;;;;;6.54;74.77;100650.22;4863729;29;20048;-95
2022/03/30 00:29:32;;;;;;;35.60;13.03;;;;;;;6.39;76.17;100638.19;4934097;23;20326;-94
2022/03/30 00:31:58;;;;;;;35.42;14.05;;;;;;;6.49;76.14;100653.56;4939706;29;20036;-93
2022/03/30 00:34:23;;;;;;;35.75;13.23;;;;;;;6.43;76.40;100650.00;4934727;29;20075;-94
2022/03/30 00:36:49;;;;;;;36.57;14.73;;;;;;;6.41;76.72;100649.44;4934980;29;20486;-93
2022/03/30 00:39:16;;;;;;;31.70;13.15;;;;;;;6.46;76.72;100657.53;4934727;29;20086;-94
2022/03/30 00:41:42;;;;;;;41.90;14.10;;;;;;;6.35;76.98;100629.09;4916632;29;20124;-95
2022/03/30 00:44:12;;;;;;;35.80;15.00;;;;;;;6.42;76.69;100651.03;4934959;29;20119;-94
2022/03/30 00:46:42;;;;;;;30.58;11.93;;;;;;;6.28;77.41;100631.06;4938427;29;20058;-95
2022/03/30 00:49:07;;;;;;;34.65;14.02;;;;;;;6.19;77.25;100631.44;4940026;29;20388;-94
2022/03/30 01:01:30;;;;;;;37.55;14.35;;;;;;;5.81;78.36;100648.63;5372076;23;20709;-95
2022/03/30 01:03:55;;;;;;;38.33;14.45;;;;;;;5.63;78.95;100622.13;4933664;29;20028;-95
2022/03/30 01:06:46;;;;;;;36.67;13.63;;;;;;;5.68;78.81;100654.13;4934482;29;20032;-94
2022/03/30 01:09:47;;;;;;;31.05;13.55;;;;;;;5.34;79.09;100612.16;4999621;23;20032;-95
2022/03/30 01:24:56;;;;;;;30.70;13.77;;;;;;;4.79;82.29;100618.41;4938585;29;20039;-96
2022/03/30 01:27:40;;;;;;;41.30;13.87;;;;;;;4.81;81.85;100624.31;4914188;29;20036;-95
2022/03/30 02:21:30;;;;;;;39.83;13.32;;;;;;;4.61;83.68;100574.94;5351976;23;20052;-95
2022/03/30 02:36:36;;;;;;;50.08;14.80;;;;;;;4.36;84.42;100529.97;4935143;29;20062;-94
2022/03/30 02:54:10;;;;;;;38.37;13.97;;;;;;;4.40;84.62;100542.53;4937085;29;20058;-95
2022/03/30 03:07:43;;;;;;;38.23;13.77;;;;;;;4.27;85.16;100523.34;6027351;23;20011;-94
2022/03/30 03:10:09;;;;;;;42.07;14.17;;;;;;;4.24;85.12;100535.19;4938684;29;20292;-93
2022/03/30 03:12:35;;;;;;;38.17;14.23;;;;;;;4.19;85.35;100540.38;4935260;29;20031;-94
2022/03/30 03:15:00;;;;;;;39.90;14.70;;;;;;;4.06;86.10;100520.13;4934343;29;20726;-93
2022/03/30 03:17:25;;;;;;;45.77;14.00;;;;;;;4.11;85.89;100535.38;4917094;29;20070;-95
2022/03/30 03:19:51;;;;;;;39.33;13.87;;;;;;;4.09;86.22;100531.09;4917793;29;20032;-94
2022/03/30 03:22:16;;;;;;;42.97;15.10;;;;;;;4.09;86.15;100527.66;4934728;29;20095;-94
2022/03/30 03:24:41;;;;;;;37.67;13.73;;;;;;;4.03;86.42;100523.22;4935933;29;20102;-95
2022/03/30 03:27:07;;;;;;;40.37;13.67;;;;;;;4.06;86.61;100528.88;4917596;29;20054;-93
2022/03/30 03:39:51;;;;;;;40.75;13.05;;;;;;;3.90;86.05;100497.66;4952485;23;20118;-96
2022/03/30 04:04:51;;;;;;;35.83;13.10;;;;;;;3.23;87.02;100490.38;4934611;29;20766;-95
2022/03/30 18:50:42;;;;;;;3.22;2.00;;;;;;;7.63;60.09;100114.31;4836480;27;20096;-88
2022/03/30 18:53:08;;;;;;;3.40;2.00;;;;;;;7.57;59.98;100118.81;4917408;29;20036;-88
2022/03/30 18:55:34;;;;;;;4.83;2.20;;;;;;;7.50;60.45;100119.03;4914514;29;20028;-88
2022/03/30 18:58:00;;;;;;;3.17;1.90;;;;;;;7.46;60.44;100117.94;4896562;29;20032;-87
2022/03/30 19:00:27;;;;;;;3.67;1.98;;;;;;;7.43;60.13;100124.59;4897476;29;20036;-88
2022/03/30 19:05:38;;;;;;;4.10;1.80;;;;;;;7.38;60.06;100119.19;4897089;29;20365;-88
2022/03/30 19:08:05;;;;;;;3.65;1.95;;;;;;;7.30;60.06;100122.34;4895128;29;20396;-86
2022/03/30 19:10:31;;;;;;;3.25;2.10;;;;;;;7.24;60.17;100118.03;4895599;29;20034;-88
2022/03/30 19:12:57;;;;;;;5.30;2.30;;;;;;;7.17;60.75;100114.75;4893488;29;20032;-88
2022/03/30 19:18:15;;;;;;;4.57;2.50;;;;;;;7.13;61.26;100127.78;4912892;29;20044;-88
2022/03/30 19:20:51;;;;;;;3.90;1.92;;;;;;;7.01;61.19;100114.59;4915813;29;20036;-87
2022/03/30 19:23:18;;;;;;;3.13;2.05;;;;;;;6.86;61.56;100093.13;4915250;29;20120;-87
2022/03/30 19:26:22;;;;;;;4.18;2.55;;;;;;;6.90;62.79;100103.03;4891576;29;20035;-86
2022/03/30 19:28:47;;;;;;;6.05;2.28;;;;;;;7.01;61.37;100125.25;4896389;29;20056;-86
2022/03/30 19:35:21;;;;;;;4.25;2.20;;;;;;;6.97;61.63;100129.47;4862591;29;20397;-86
2022/03/30 19:38:26;;;;;;;6.63;2.47;;;;;;;6.91;62.42;100130.50;4850018;29;20101;-87
2022/03/30 19:41:14;;;;;;;6.82;3.05;;;;;;;6.87;62.19;100124.03;4856344;29;20498;-86
2022/03/30 19:44:01;;;;;;;4.03;2.45;;;;;;;6.66;62.70;100107.84;4856581;29;20045;-87
2022/03/30 19:47:22;;;;;;;5.75;2.65;;;;;;;6.83;62.49;100121.09;4840626;29;20041;-87
2022/03/30 19:50:39;;;;;;;5.47;2.83;;;;;;;6.81;63.07;100126.66;4841541;29;20037;-86
2022/03/30 19:53:54;;;;;;;2.75;2.30;;;;;;;6.76;62.69;100123.91;4839394;29;20410;-87
2022/03/30 19:56:29;;;;;;;4.83;2.30;;;;;;;6.71;62.58;100115.91;4799950;29;20047;-86
2022/03/30 19:58:54;;;;;;;3.33;2.63;;;;;;;6.67;63.73;100125.44;4808876;29;20299;-86
2022/03/30 20:02:03;;;;;;;4.93;2.40;;;;;;;6.68;63.35;100135.03;4819240;29;20049;-87
2022/03/30 20:04:46;;;;;;;5.90;2.03;;;;;;;6.45;64.12;100107.59;4834454;29;20041;-86
2022/03/30 20:08:00;;;;;;;3.13;2.50;;;;;;;6.59;63.76;100133.84;4921988;23;20395;-86
2022/03/30 20:11:21;;;;;;;3.38;2.40;;;;;;;6.54;63.43;100125.81;4838499;29;20386;-87
2022/03/30 20:19:55;;;;;;;5.18;2.78;;;;;;;6.48;63.94;100125.72;5317388;23;20052;-89
2022/03/30 20:22:20;;;;;;;3.95;2.33;;;;;;;6.33;64.46;100104.25;4913026;29;20040;-88
2022/03/30 20:27:14;;;;;;;7.20;2.75;;;;;;;6.39;65.05;100123.75;5670859;23;20048;-89
2022/03/30 20:29:40;;;;;;;9.00;3.17;;;;;;;6.35;65.40;100128.78;4897226;29;20036;-89
2022/03/30 20:32:07;;;;;;;4.27;2.37;;;;;;;6.32;65.10;100122.06;4914722;29;20280;-89
2022/03/30 20:37:37;;;;;;;5.53;2.30;;;;;;;6.37;64.80;100132.00;5854507;23;20079;-87
2022/03/30 20:50:10;;;;;;;2.88;2.20;;;;;;;6.24;66.15;100122.50;4914569;29;20472;-88
2022/03/30 20:53:09;;;;;;;3.00;2.13;;;;;;;6.25;65.70;100112.66;4933010;29;20054;-86
2022/03/30 20:55:37;;;;;;;5.13;2.22;;;;;;;6.32;66.71;100129.25;5037632;23;20063;-84
2022/03/30 20:58:02;;;;;;;3.40;2.40;;;;;;;6.25;66.22;100121.47;4912709;29;20387;-84
2022/03/30 21:00:27;;;;;;;4.43;2.47;;;;;;;6.25;66.80;100118.78;4907913;29;20778;-86
2022/03/30 21:02:53;;;;;;;3.87;2.10;;;;;;;6.21;66.81;100113.16;4912354;29;20040;-84
2022/03/30 21:05:19;;;;;;;5.03;2.17;;;;;;;6.21;66.84;100107.03;4912224;29;20430;-84
2022/03/30 21:07:45;;;;;;;4.72;2.17;;;;;;;6.06;67.04;100091.66;4912025;29;20039;-85
2022/03/30 21:10:12;;;;;;;3.38;2.00;;;;;;;6.22;66.90;100120.06;4912673;29;20032;-84
2022/03/30 21:12:37;;;;;;;3.13;2.30;;;;;;;6.16;67.02;100109.63;4911718;29;20028;-85
2022/03/30 21:15:04;;;;;;;4.22;2.45;;;;;;;6.25;66.52;100110.00;4912929;29;20036;-85
2022/03/30 21:17:29;;;;;;;5.55;2.60;;;;;;;6.21;67.53;100113.16;4910775;29;20102;-85
2022/03/30 21:19:55;;;;;;;4.77;2.50;;;;;;;6.26;67.63;100108.94;4913217;29;20147;-84
2022/03/30 21:22:21;;;;;;;4.13;2.83;;;;;;;6.26;68.03;100112.44;4912134;29;20028;-85
2022/03/30 21:24:58;;;;;;;4.60;2.60;;;;;;;6.21;67.51;100107.81;5020044;23;20370;-86
2022/03/30 21:27:30;;;;;;;2.92;2.45;;;;;;;6.32;67.41;100118.63;4912412;29;20437;-85
2022/03/30 21:29:58;;;;;;;2.90;2.30;;;;;;;6.25;66.76;100102.00;4912469;29;20042;-84
2022/03/30 21:32:23;;;;;;;5.25;2.40;;;;;;;6.21;67.02;100097.19;4912002;29;20694;-84
2022/03/30 21:34:55;;;;;;;4.93;2.70;;;;;;;6.16;67.09;100105.13;4912544;29;21297;-85
2022/03/30 21:37:30;;;;;;;3.58;2.70;;;;;;;6.08;67.37;100094.09;4909902;29;20032;-84
2022/03/30 21:39:55;;;;;;;2.70;2.22;;;;;;;6.05;67.73;100093.53;4895501;29;20114;-85
2022/03/30 21:42:21;;;;;;;4.03;2.30;;;;;;;6.17;67.46;100116.53;4892909;29;20043;-84
2022/03/30 21:44:47;;;;;;;3.30;2.63;;;;;;;6.17;67.73;100111.22;4913417;29;20424;-85
2022/03/30 21:47:12;;;;;;;3.55;2.67;;;;;;;6.08;67.73;100102.88;4912499;29;20071;-86
2022/03/30 21:49:37;;;;;;;4.15;2.58;;;;;;;6.10;67.84;100103.44;4910716;29;20428;-84
2022/03/30 21:52:03;;;;;;;3.63;2.50;;;;;;;6.03;68.44;100092.16;4912828;29;20036;-86
2022/03/30 21:54:29;;;;;;;3.47;2.77;;;;;;;6.06;68.03;100094.31;4912858;29;20055;-85
2022/03/30 21:56:55;;;;;;;3.88;2.75;;;;;;;6.04;68.28;100093.75;4911124;29;20483;-84
2022/03/30 21:59:21;;;;;;;4.78;2.83;;;;;;;6.00;68.21;100084.69;4912044;29;20116;-85
2022/03/30 22:01:47;;;;;;;4.87;2.67;;;;;;;5.93;67.77;100074.19;4913484;29;20103;-84
2022/03/30 22:04:13;;;;;;;4.75;2.88;;;;;;;5.90;68.53;100080.00;4913184;29;20068;-85
2022/03/30 22:06:39;;;;;;;5.38;3.20;;;;;;;5.96;68.21;100084.31;4911702;29;20028;-85
2022/03/30 22:09:05;;;;;;;3.65;2.90;;;;;;;5.86;68.73;100082.31;4911694;29;20042;-85
2022/03/30 22:11:30;;;;;;;5.53;3.03;;;;;;;5.87;68.83;100089.25;4911733;29;20040;-86
2022/03/30 22:13:56;;;;;;;4.82;2.70;;;;;;;5.82;68.90;100078.56;4913553;29;20569;-86
2022/03/30 22:17:15;;;;;;;;;;;;;;;;;;;;;
2022/03/30 22:19:41;;;;;;;4.25;2.88;;;;;;;5.75;69.30;100081.38;4935712;28;20042;-84
2022/03/30 22:22:07;;;;;;;4.10;2.90;;;;;;;5.76;69.55;100090.16;4954274;28;20594;-84
2022/03/30 22:24:32;;;;;;;3.33;2.73;;;;;;;5.64;70.08;100068.97;4953530;28;20110;-84
2022/03/30 22:26:58;;;;;;;4.90;3.37;;;;;;;5.68;69.34;100077.28;4954252;29;20027;-84
2022/03/30 22:29:23;;;;;;;3.60;3.13;;;;;;;5.69;69.73;100081.53;4938127;29;20443;-85
2022/03/30 22:37:16;;;;;;;4.60;3.37;;;;;;;5.62;69.27;100073.72;4953819;28;20809;-84
2022/03/30 22:39:41;;;;;;;3.80;3.00;;;;;;;5.58;69.90;100068.09;4943696;28;20110;-85
2022/03/30 22:42:07;;;;;;;4.33;2.90;;;;;;;5.61;69.55;100072.94;4952523;28;20114;-85
2022/03/30 22:44:34;;;;;;;5.63;3.00;;;;;;;5.57;69.96;100071.81;4954418;28;20046;-84
2022/03/30 22:47:00;;;;;;;5.32;3.25;;;;;;;5.52;69.85;100063.75;4954463;28;20031;-85
2022/03/30 22:49:27;;;;;;;4.45;3.28;;;;;;;5.52;70.11;100063.75;4955702;28;20038;-85
2022/03/30 22:51:53;;;;;;;3.70;2.90;;;;;;;5.45;70.08;100063.91;4956724;28;20494;-86
2022/03/30 22:54:19;;;;;;;3.65;3.00;;;;;;;5.40;70.43;100058.50;4955648;28;20035;-84
2022/03/30 22:56:45;;;;;;;4.57;2.90;;;;;;;5.36;69.99;100052.09;4956826;28;20094;-85
2022/03/30 22:59:10;;;;;;;4.25;3.15;;;;;;;5.36;70.14;100052.09;4952900;28;20114;-85
2022/03/30 23:01:36;;;;;;;5.77;3.20;;;;;;;5.26;70.01;100043.94;4955334;29;20047;-85
2022/03/30 23:04:01;;;;;;;3.80;2.73;;;;;;;5.30;70.02;100055.72;4956135;28;20066;-85
2022/03/30 23:09:11;;;;;;;4.93;3.27;;;;;;;5.14;70.89;100052.00;4953686;28;20134;-84
2022/03/30 23:11:42;;;;;;;6.27;3.30;;;;;;;5.15;70.62;100049.13;4952905;28;20373;-85
2022/03/30 23:14:08;;;;;;;5.45;3.20;;;;;;;5.12;71.10;100048.75;4951991;28;20023;-85
2022/03/30 23:16:34;;;;;;;5.75;3.50;;;;;;;5.10;70.95;100045.56;4953038;28;20031;-85
2022/03/30 23:19:00;;;;;;;5.03;3.10;;;;;;;5.06;71.22;100041.78;4953293;28;20110;-85
2022/03/30 23:21:26;;;;;;;7.90;3.55;;;;;;;5.04;71.45;100044.66;4951936;28;20451;-84
2022/03/30 23:23:51;;;;;;;4.40;3.60;;;;;;;5.02;71.73;100041.47;4952587;28;20019;-85
2022/03/30 23:26:17;;;;;;;6.03;3.40;;;;;;;5.03;71.56;100034.28;4947318;28;20044;-84
2022/03/30 23:36:42;;;;;;;5.50;3.13;;;;;;;4.92;71.64;100023.50;5281978;23;20075;-84
2022/03/30 23:39:31;;;;;;;3.90;3.47;;;;;;;4.94;71.65;100020.59;4953333;29;20027;-84
2022/03/30 23:42:36;;;;;;;5.00;3.40;;;;;;;4.91;71.59;100013.94;4933524;29;20123;-85
2022/03/30 23:45:21;;;;;;;4.93;3.80;;;;;;;4.92;71.32;100010.22;4934066;29;20031;-84
2022/03/30 23:47:47;;;;;;;5.22;3.92;;;;;;;4.91;72.32;100005.16;4933078;29;20036;-84
2022/03/30 23:50:16;;;;;;;5.23;3.20;;;;;;;4.83;73.01;100003.69;4952919;29;20035;-85
2022/03/30 23:52:42;;;;;;;6.13;3.78;;;;;;;4.85;73.16;100006.91;4952136;29;20027;-84
2022/03/30 23:55:09;;;;;;;8.20;3.55;;;;;;;4.80;72.98;100009.47;4947334;29;20046;-84
